Auburn, Indiana
Current Conditions -  °F | °C
As of 10:35 AM on Friday 24 Oct 2014 (Local Time) from KGWB Reporting Station
Overcast Overcast  
Wind Chill: 50°   Ceiling: 3500
Heat Index: 50°   Visibility: 7mi
Dew Point: 43°   Wind: 3mph
Humidity: 76%   Direction: 260°W
Pressure: 30.1"   Gusts: NA
Location:  41.37°N, 85.05°W
Report Text: KGWB 241435Z AUTO 26003KT 7SM OVC035 10/06 A3010 RMK AO2
Loading
Personal Weather Stations






























Interactive Weather Map
Tropical Storm Tracking
New forecast layout! Learn more

10-Day Weather Forecast

Advertisements
Track Severe Weather on mobile